Time;durP1;ratioP1;P1;durP2;ratioP2;P2;SDS_P1;SDS_P2;PMS_P1;PMS_P2;Temp;Humidity;BMP_temperature;BMP_pressure;BME280_temperature;BME280_humidity;BME280_pressure;Samples;Min_cycle;Max_cycle;Signal;HPM_P1;HPM_P2
2023/05/26 00:01:46;;;;;;;20.17;9.50;;;;;;;15.37;64.03;100915.63;4971953;28;96854;-76
2023/05/26 00:04:16;;;;;;;17.08;9.70;;;;;;;15.37;64.28;100918.28;4971040;28;98114;-76
2023/05/26 00:06:46;;;;;;;16.10;9.83;;;;;;;15.38;64.22;100919.97;4970447;28;97446;-75
2023/05/26 00:09:12;;;;;;;22.77;10.95;;;;;;;15.37;64.01;100920.91;4957838;28;97389;-76
2023/05/26 00:11:38;;;;;;;19.98;10.75;;;;;;;15.17;64.09;100894.50;4957558;28;96829;-76
2023/05/26 00:14:04;;;;;;;19.13;10.57;;;;;;;15.22;64.12;100896.94;4952704;28;98036;-76
2023/05/26 00:16:30;;;;;;;16.35;10.23;;;;;;;15.32;64.13;100914.97;4957738;28;101641;-76
2023/05/26 00:18:55;;;;;;;15.27;10.50;;;;;;;15.27;64.25;100916.09;4982889;28;97868;-76
2023/05/26 00:21:21;;;;;;;22.17;9.80;;;;;;;15.25;64.13;100916.19;4983985;28;97057;-76
2023/05/26 00:23:46;;;;;;;17.08;9.68;;;;;;;15.27;63.93;100921.38;4967938;28;97989;-76
2023/05/26 00:26:13;;;;;;;17.60;10.55;;;;;;;15.28;64.18;100923.13;4964483;28;97414;-76
2023/05/26 00:28:40;;;;;;;15.45;9.90;;;;;;;15.23;64.03;100928.59;4964465;28;97728;-76
2023/05/26 00:31:06;;;;;;;20.75;10.70;;;;;;;15.14;64.22;100918.44;4953919;28;97012;-76
2023/05/26 00:33:31;;;;;;;17.52;9.75;;;;;;;15.14;64.31;100918.44;4958244;28;101193;-76
2023/05/26 00:35:57;;;;;;;17.45;9.40;;;;;;;15.13;64.40;100928.16;4967134;28;97631;-76
2023/05/26 00:38:22;;;;;;;19.67;10.27;;;;;;;15.12;64.36;100923.75;4963408;28;98342;-76
2023/05/26 00:40:49;;;;;;;19.25;10.18;;;;;;;15.09;64.53;100921.25;4955367;28;96977;-76
2023/05/26 00:43:14;;;;;;;18.95;9.57;;;;;;;15.12;64.34;100928.19;4970859;28;97410;-76
2023/05/26 00:45:40;;;;;;;17.10;9.52;;;;;;;15.04;64.57;100920.63;4954035;28;101500;-76
2023/05/26 00:48:06;;;;;;;16.27;9.13;;;;;;;15.05;64.56;100927.63;4974022;28;97316;-76
2023/05/26 00:50:31;;;;;;;17.98;9.15;;;;;;;15.01;64.24;100923.41;4954426;28;96884;-76
2023/05/26 00:52:59;;;;;;;17.15;9.18;;;;;;;15.01;64.47;100923.41;4970797;28;97942;-76
2023/05/26 00:55:24;;;;;;;12.95;8.55;;;;;;;14.92;64.66;100903.50;4953825;28;101559;-76
2023/05/26 00:57:50;;;;;;;25.17;9.88;;;;;;;14.89;64.31;100898.34;4970349;28;97391;-76
2023/05/26 01:00:16;;;;;;;19.48;10.70;;;;;;;15.06;64.34;100918.75;4970900;28;97326;-76
2023/05/26 01:02:44;;;;;;;16.83;9.60;;;;;;;15.10;63.90;100917.72;4937293;28;101660;-76
2023/05/26 01:05:10;;;;;;;17.10;9.90;;;;;;;14.98;64.18;100905.03;4953946;28;98326;-76
2023/05/26 01:07:36;;;;;;;14.43;9.20;;;;;;;15.12;64.03;100922.91;4972268;28;96742;-76
2023/05/26 01:10:03;;;;;;;19.05;9.75;;;;;;;15.12;64.31;100925.56;4954119;28;96940;-76
2023/05/26 01:12:44;;;;;;;14.10;9.38;;;;;;;15.12;64.26;100923.75;4954155;28;101767;-76
2023/05/26 01:15:12;;;;;;;13.38;8.57;;;;;;;15.08;64.43;100916.91;4925842;28;100257;-76
2023/05/26 01:17:57;;;;;;;15.35;9.07;;;;;;;15.06;64.33;100912.59;4953910;28;96929;-76
2023/05/26 01:20:38;;;;;;;12.65;8.73;;;;;;;15.10;64.46;100917.72;4952181;28;96738;-76
2023/05/26 01:23:38;;;;;;;16.10;8.35;;;;;;;15.13;64.50;100917.56;4953475;28;101349;-76
2023/05/26 01:26:21;;;;;;;15.68;9.00;;;;;;;15.14;64.60;100919.28;4953351;28;99693;-76
2023/05/26 01:28:51;;;;;;;15.82;9.68;;;;;;;15.12;64.76;100914.97;4947589;28;97173;-76
2023/05/26 01:31:18;;;;;;;19.40;9.65;;;;;;;15.17;64.46;100915.66;4965493;28;96885;-76
2023/05/26 01:33:44;;;;;;;15.38;9.63;;;;;;;15.13;64.41;100911.44;4969116;28;98009;-75
2023/05/26 01:36:09;;;;;;;15.68;8.88;;;;;;;14.94;64.25;100869.91;4951133;28;101229;-76
2023/05/26 01:38:35;;;;;;;13.02;9.45;;;;;;;14.97;64.48;100879.50;4968216;28;97069;-76
2023/05/26 01:41:22;;;;;;;16.42;9.20;;;;;;;15.13;64.26;100903.50;4970724;28;97457;-75
2023/05/26 01:43:56;;;;;;;16.23;9.27;;;;;;;15.11;64.66;100906.19;4969409;28;97796;-76
2023/05/26 01:46:26;;;;;;;12.75;8.88;;;;;;;15.13;64.54;100911.44;4969543;28;101219;-75
2023/05/26 01:48:56;;;;;;;16.25;8.93;;;;;;;15.03;64.40;100900.38;4953071;28;96810;-76
2023/05/26 01:51:23;;;;;;;17.95;8.90;;;;;;;15.09;64.34;100912.47;4951111;28;96772;-76
2023/05/26 01:53:52;;;;;;;17.73;8.52;;;;;;;15.11;64.44;100916.75;4967671;28;100989;-76
2023/05/26 01:56:18;;;;;;;15.77;8.45;;;;;;;15.08;64.47;100914.25;4969874;28;97396;-76
2023/05/26 01:58:45;;;;;;;16.23;8.90;;;;;;;14.98;64.17;100893.56;4952389;28;97995;-76
2023/05/26 02:01:11;;;;;;;10.65;8.48;;;;;;;15.12;64.21;100923.75;4951259;28;97136;-76
2023/05/26 02:03:36;;;;;;;13.63;8.02;;;;;;;15.12;64.09;100921.13;4952892;28;98211;-76
2023/05/26 02:06:03;;;;;;;17.83;9.73;;;;;;;15.08;64.12;100916.91;4936700;28;101748;-76
2023/05/26 02:08:29;;;;;;;18.15;8.07;;;;;;;15.02;64.29;100906.59;4952705;28;97179;-76
2023/05/26 02:10:54;;;;;;;15.93;8.38;;;;;;;15.11;64.31;100918.56;4969194;28;97380;-76
2023/05/26 02:13:20;;;;;;;13.10;8.75;;;;;;;15.01;64.08;100896.06;4952603;28;101106;-76
2023/05/26 02:15:46;;;;;;;13.23;8.57;;;;;;;15.10;64.58;100923.00;4968871;28;97983;-76
2023/05/26 02:18:11;;;;;;;22.23;8.80;;;;;;;15.13;64.73;100933.44;4953464;28;97032;-76
2023/05/26 02:20:38;;;;;;;16.60;8.13;;;;;;;15.13;64.62;100919.38;4937231;28;96892;-76
2023/05/26 02:23:04;;;;;;;18.17;8.90;;;;;;;15.05;64.71;100905.59;4952196;28;101538;-76
2023/05/26 02:25:30;;;;;;;14.80;8.02;;;;;;;15.18;64.89;100925.28;4970926;28;97949;-76
2023/05/26 02:27:55;;;;;;;14.27;8.27;;;;;;;15.22;64.85;100934.81;4969213;28;97330;-76
2023/05/26 02:30:21;;;;;;;17.48;8.18;;;;;;;15.20;64.68;100930.53;4953077;28;97019;-76
2023/05/26 02:32:46;;;;;;;13.13;7.82;;;;;;;15.10;64.86;100903.63;4951371;28;101046;-75
2023/05/26 02:35:12;;;;;;;15.43;8.40;;;;;;;15.07;65.14;100904.63;4952755;28;97459;-76
2023/05/26 02:37:38;;;;;;;11.70;7.90;;;;;;;15.26;65.05;100938.19;4953235;28;97289;-76
2023/05/26 02:40:06;;;;;;;13.02;7.85;;;;;;;15.19;64.89;100923.53;4958019;28;97548;-76
2023/05/26 02:42:33;;;;;;;11.65;8.05;;;;;;;15.26;65.27;100943.47;4952210;28;101350;-76
2023/05/26 02:44:58;;;;;;;11.55;7.18;;;;;;;15.27;65.24;100943.41;4951647;28;101483;-76
2023/05/26 02:47:24;;;;;;;14.88;8.15;;;;;;;15.25;64.90;100937.34;4937492;28;97250;-76
2023/05/26 02:49:51;;;;;;;14.73;8.75;;;;;;;15.23;65.05;100936.53;4972636;28;97379;-76
2023/05/26 02:52:16;;;;;;;12.15;8.15;;;;;;;15.25;64.99;100945.25;4939584;28;101553;-76
2023/05/26 02:54:42;;;;;;;15.90;7.75;;;;;;;15.23;65.02;100940.97;4954005;28;101107;-75
2023/05/26 02:57:07;;;;;;;14.90;8.38;;;;;;;15.24;64.93;100937.38;4971977;28;96839;-76
2023/05/26 02:59:33;;;;;;;17.90;8.25;;;;;;;15.22;65.01;100937.47;4972354;28;97238;-76
2023/05/26 03:01:58;;;;;;;14.98;8.15;;;;;;;15.23;65.02;100941.81;4955253;28;101010;-76
2023/05/26 03:04:24;;;;;;;12.70;7.63;;;;;;;15.22;64.92;100934.81;4951337;28;101800;-76
2023/05/26 03:06:49;;;;;;;15.38;8.77;;;;;;;15.17;64.82;100932.38;4971401;28;97177;-76
2023/05/26 03:09:19;;;;;;;18.25;8.48;;;;;;;15.21;64.91;100942.81;4956159;28;97195;-76
2023/05/26 03:11:45;;;;;;;15.30;8.05;;;;;;;15.20;64.94;100943.75;4971942;28;99952;-76
2023/05/26 03:14:11;;;;;;;11.05;8.05;;;;;;;15.24;64.87;100934.75;4939366;28;100805;-76
2023/05/26 03:16:36;;;;;;;14.52;8.02;;;;;;;15.24;65.04;100945.31;4952400;28;97680;-76
2023/05/26 03:19:03;;;;;;;17.30;8.45;;;;;;;15.28;64.75;100944.28;4959951;28;97686;-76
2023/05/26 03:21:30;;;;;;;18.05;8.13;;;;;;;15.16;64.92;100925.38;4947867;28;101056;-76
2023/05/26 03:23:55;;;;;;;12.75;8.48;;;;;;;15.11;64.97;100916.75;4954201;28;101769;-76
2023/05/26 03:26:22;;;;;;;15.30;7.50;;;;;;;15.30;64.98;100951.22;4955909;28;97150;-76
2023/05/26 03:28:48;;;;;;;11.00;7.32;;;;;;;15.29;64.82;100945.97;4954686;28;96928;-75
2023/05/26 03:31:13;;;;;;;14.63;7.35;;;;;;;15.29;64.86;100943.34;4939654;28;101402;-76
2023/05/26 03:33:39;;;;;;;14.48;7.93;;;;;;;15.29;64.92;100946.84;4954739;28;101220;-76
2023/05/26 03:36:05;;;;;;;13.98;7.18;;;;;;;15.28;64.90;100946.91;4957869;28;96777;-76
2023/05/26 03:38:31;;;;;;;12.18;7.80;;;;;;;15.33;65.19;100950.19;4952600;28;96867;-76
2023/05/26 03:40:59;;;;;;;12.38;7.10;;;;;;;15.35;64.83;100946.56;4955158;28;100112;-77
2023/05/26 03:43:26;;;;;;;14.55;7.38;;;;;;;15.32;64.79;100952.00;4954861;28;100519;-76
2023/05/26 03:45:52;;;;;;;17.35;7.65;;;;;;;15.37;64.64;100957.09;4970926;28;96965;-76
2023/05/26 03:48:19;;;;;;;12.75;7.35;;;;;;;15.45;64.62;100962.91;4971984;28;97237;-76
2023/05/26 03:50:46;;;;;;;16.77;7.95;;;;;;;15.34;64.74;100933.44;4939014;28;101846;-76
2023/05/26 03:53:12;;;;;;;12.48;6.90;;;;;;;15.48;64.75;100965.41;4972196;28;97276;-76
2023/05/26 03:55:38;;;;;;;10.80;7.15;;;;;;;15.53;64.50;100967.84;4955161;28;96767;-76
2023/05/26 03:58:04;;;;;;;15.57;6.65;;;;;;;15.43;64.56;100940.09;4958437;28;97560;-76
2023/05/26 04:00:32;;;;;;;14.43;6.88;;;;;;;15.61;64.31;100971.88;4955298;28;100559;-76
2023/05/26 04:02:59;;;;;;;12.52;7.55;;;;;;;15.69;64.24;100963.63;4954890;28;101468;-77
2023/05/26 04:05:25;;;;;;;12.02;6.82;;;;;;;15.83;64.07;100970.94;4955327;28;96943;-76
2023/05/26 04:07:51;;;;;;;16.52;7.05;;;;;;;15.90;63.99;100966.22;4974388;28;98015;-77
2023/05/26 04:10:16;;;;;;;15.00;7.53;;;;;;;16.04;63.55;100962.00;4957776;28;101088;-76
2023/05/26 04:12:42;;;;;;;12.07;6.25;;;;;;;16.12;63.65;100972.25;4992745;28;97899;-77
2023/05/26 04:15:11;;;;;;;19.20;7.50;;;;;;;15.98;63.30;100950.84;4957874;28;96913;-74
2023/05/26 04:17:37;;;;;;;14.85;7.30;;;;;;;16.03;63.32;100965.59;4959116;28;96898;-75
2023/05/26 04:20:13;;;;;;;15.68;7.40;;;;;;;16.21;63.08;100985.06;4941440;28;101640;-75
2023/05/26 04:22:39;;;;;;;16.92;7.38;;;;;;;16.28;63.15;100986.47;4959259;28;100924;-75
2023/05/26 04:25:07;;;;;;;10.45;6.75;;;;;;;16.20;62.79;100961.28;4941736;28;97123;-75
2023/05/26 04:27:58;;;;;;;15.73;7.50;;;;;;;16.23;62.58;100961.13;4962230;28;96907;-75
2023/05/26 04:30:42;;;;;;;18.88;6.85;;;;;;;16.52;61.85;100988.88;4978061;28;97804;-76
2023/05/26 04:33:12;;;;;;;9.95;6.38;;;;;;;16.86;61.01;100974.03;4975006;28;97964;-75
2023/05/26 04:35:58;;;;;;;14.27;8.32;;;;;;;17.33;60.09;100989.31;4963037;28;96920;-76
2023/05/26 04:38:24;;;;;;;17.58;7.60;;;;;;;17.57;59.02;100981.88;4957755;28;96972;-75
2023/05/26 04:40:50;;;;;;;15.07;7.50;;;;;;;17.82;58.52;100990.28;4957848;28;98123;-76
2023/05/26 04:43:15;;;;;;;15.13;7.68;;;;;;;18.00;57.76;100991.09;4974157;28;97904;-76
2023/05/26 04:45:42;;;;;;;17.15;7.50;;;;;;;18.03;57.40;100967.00;4991656;28;97012;-76
2023/05/26 04:48:08;;;;;;;16.83;7.63;;;;;;;18.29;56.77;100978.00;4957605;28;96885;-75
2023/05/26 04:50:38;;;;;;;19.65;9.10;;;;;;;18.48;56.64;100991.97;4971612;28;102027;-75
2023/05/26 04:53:07;;;;;;;14.57;7.90;;;;;;;18.72;56.08;100994.19;4973762;28;97902;-75
2023/05/26 04:55:35;;;;;;;14.10;7.63;;;;;;;18.85;55.60;100994.34;4957616;28;97321;-76
2023/05/26 04:58:06;;;;;;;14.15;8.70;;;;;;;18.87;55.41;100984.50;4957325;28;96881;-76
2023/05/26 05:00:34;;;;;;;12.10;7.55;;;;;;;19.03;55.09;100987.97;4963224;28;101303;-76
2023/05/26 05:03:15;;;;;;;13.77;7.55;;;;;;;19.11;54.86;100961.78;4956236;28;101475;-75
2023/05/26 05:05:55;;;;;;;14.07;7.45;;;;;;;19.39;53.98;100957.44;4955340;28;97039;-75
2023/05/26 05:08:21;;;;;;;16.67;8.50;;;;;;;19.68;53.78;100984.97;4955368;28;98589;-75
2023/05/26 05:10:46;;;;;;;19.80;8.73;;;;;;;19.82;53.40;100981.47;4968820;28;98098;-75
2023/05/26 05:13:12;;;;;;;20.73;7.72;;;;;;;19.88;53.38;100984.59;4953074;28;100563;-75
2023/05/26 05:15:38;;;;;;;15.80;7.22;;;;;;;20.09;52.87;100986.88;4989073;28;97348;-75
2023/05/26 05:18:03;;;;;;;21.50;8.00;;;;;;;20.45;52.43;100980.13;4952228;28;97696;-75
2023/05/26 05:20:29;;;;;;;14.13;6.55;;;;;;;20.58;51.69;100962.41;4969690;28;101251;-76
2023/05/26 05:22:55;;;;;;;14.77;7.20;;;;;;;21.17;50.69;100983.38;4956207;28;101059;-75
2023/05/26 05:25:22;;;;;;;14.95;6.93;;;;;;;21.54;49.75;100967.53;4956805;28;97283;-75
2023/05/26 05:27:47;;;;;;;16.92;6.55;;;;;;;21.92;48.36;100987.03;4954853;28;97322;-75
2023/05/26 05:30:17;;;;;;;18.13;6.05;;;;;;;21.65;48.67;100991.69;4956774;28;100456;-76
2023/05/26 05:32:43;;;;;;;13.48;6.05;;;;;;;22.13;47.47;101000.69;4956486;28;101271;-75
2023/05/26 05:35:10;;;;;;;14.63;6.25;;;;;;;23.21;45.57;100999.03;4972966;28;97248;-75
2023/05/26 05:37:36;;;;;;;21.00;5.97;;;;;;;24.12;43.95;101008.91;4951389;28;98503;-76
2023/05/26 05:40:03;;;;;;;15.18;5.60;;;;;;;24.90;41.98;100988.25;4970166;28;98145;-78
2023/05/26 05:42:28;;;;;;;17.65;5.70;;;;;;;25.84;40.22;100986.50;4939847;28;101398;-77
2023/05/26 05:44:54;;;;;;;15.50;5.53;;;;;;;27.02;38.22;100993.81;4947267;28;96938;-78
2023/05/26 05:47:38;;;;;;;20.20;6.05;;;;;;;28.91;35.13;100997.19;4954679;28;97576;-77
2023/05/26 05:50:05;;;;;;;12.57;5.72;;;;;;;31.26;31.63;100978.63;4947446;28;101283;-77
2023/05/26 05:52:31;;;;;;;11.35;4.80;;;;;;;33.21;28.73;100980.59;4943214;28;98106;-78
2023/05/26 05:54:57;;;;;;;16.35;5.20;;;;;;;34.70;26.72;100993.97;4954984;28;96785;-77
2023/05/26 05:57:22;;;;;;;14.30;5.57;;;;;;;35.93;25.55;100986.31;4950157;28;97120;-78
2023/05/26 05:59:49;;;;;;;13.10;5.30;;;;;;;36.89;24.27;100988.97;4942229;28;101945;-77
2023/05/26 06:02:16;;;;;;;15.18;5.82;;;;;;;37.74;23.41;100988.28;4970201;28;101074;-78
2023/05/26 06:04:42;;;;;;;11.38;5.00;;;;;;;38.46;22.51;100989.09;4979448;28;96833;-78
2023/05/26 06:07:08;;;;;;;16.48;5.35;;;;;;;34.82;25.01;100982.53;4970090;28;96976;-78
2023/05/26 06:09:33;;;;;;;24.05;6.47;;;;;;;32.29;28.00;100984.13;4973278;28;97985;-77
2023/05/26 06:12:00;;;;;;;11.52;4.63;;;;;;;31.93;28.51;101000.06;4945982;28;101393;-77
2023/05/26 06:14:26;;;;;;;18.25;5.43;;;;;;;31.95;28.31;100973.59;4951061;28;97259;-78
2023/05/26 06:16:52;;;;;;;16.90;6.00;;;;;;;32.73;28.10;101007.13;4964216;28;96901;-77
2023/05/26 06:19:18;;;;;;;13.68;4.47;;;;;;;33.46;26.87;101001.09;4949194;28;102250;-78
2023/05/26 06:21:43;;;;;;;13.23;4.63;;;;;;;35.53;24.97;100996.97;4940740;28;101135;-78
2023/05/26 06:24:09;;;;;;;19.15;5.88;;;;;;;35.73;24.92;101005.34;4945317;28;97020;-77
2023/05/26 06:26:35;;;;;;;11.75;4.95;;;;;;;36.80;23.25;100995.69;4963333;28;97275;-78
2023/05/26 06:29:00;;;;;;;12.20;5.28;;;;;;;37.46;22.73;101003.03;4944217;28;101596;-78
2023/05/26 06:31:28;;;;;;;17.20;5.40;;;;;;;39.16;21.16;101008.22;4954632;28;101710;-78
2023/05/26 06:34:15;;;;;;;18.25;5.95;;;;;;;41.72;18.91;100993.31;4933770;28;97189;-79
2023/05/26 06:36:41;;;;;;;20.45;6.22;;;;;;;43.21;18.04;100984.00;4947141;28;97243;-79
2023/05/26 06:39:07;;;;;;;14.02;5.50;;;;;;;43.81;17.55;100998.94;4947792;28;100947;-79
2023/05/26 06:41:33;;;;;;;9.30;4.95;;;;;;;44.64;16.81;101001.56;4952645;28;101449;-79
2023/05/26 06:44:00;;;;;;;11.20;4.30;;;;;;;44.86;16.03;100995.94;4948866;28;96899;-79
2023/05/26 06:49:10;;;;;;;18.52;6.00;;;;;;;46.15;15.30;100981.75;4966906;28;98602;-78
2023/05/26 06:51:45;;;;;;;11.70;5.20;;;;;;;46.69;14.78;100986.88;4936329;28;101263;-78
2023/05/26 06:54:11;;;;;;;18.50;4.97;;;;;;;47.29;14.60;100993.50;4964307;28;97180;-77
2023/05/26 06:56:36;;;;;;;15.30;5.20;;;;;;;47.72;14.01;100984.75;4942825;28;96859;-77
2023/05/26 06:59:02;;;;;;;17.98;4.95;;;;;;;47.11;14.38;100978.25;4971639;28;98098;-78
2023/05/26 07:01:28;;;;;;;11.45;4.53;;;;;;;40.75;18.24;100983.53;4969399;28;100750;-77
2023/05/26 07:03:53;;;;;;;13.93;4.60;;;;;;;39.09;19.96;100971.75;4955019;28;96874;-77
2023/05/26 07:06:19;;;;;;;17.08;4.90;;;;;;;39.55;19.21;100987.78;4952589;28;97358;-77
2023/05/26 07:08:48;;;;;;;12.43;4.40;;;;;;;39.66;19.23;100985.38;4966201;28;98452;-78
2023/05/26 07:11:35;;;;;;;28.35;5.43;;;;;;;37.39;21.26;100986.63;4974640;28;98751;-77
2023/05/26 07:14:05;;;;;;;15.35;5.45;;;;;;;37.67;20.50;100993.75;4939135;28;96889;-77
2023/05/26 07:16:31;;;;;;;47.20;6.88;;;;;;;37.02;20.70;100990.88;4951190;28;97242;-77
2023/05/26 07:18:56;;;;;;;24.25;5.15;;;;;;;36.78;21.10;101003.25;4953040;28;101141;-77
2023/05/26 07:21:25;;;;;;;22.25;5.47;;;;;;;38.64;18.94;100994.66;4951660;28;101807;-76
2023/05/26 07:23:51;;;;;;;17.88;5.22;;;;;;;38.93;19.33;101015.16;4951976;28;97103;-77
2023/05/26 07:26:17;;;;;;;14.23;4.97;;;;;;;43.84;15.92;101004.81;4968883;28;96998;-77
2023/05/26 07:28:44;;;;;;;14.68;5.10;;;;;;;46.14;14.21;100999.50;4947330;28;101362;-77
2023/05/26 07:31:09;;;;;;;12.50;4.70;;;;;;;48.06;13.31;100994.06;4955250;28;100990;-78
2023/05/26 07:33:37;;;;;;;9.77;4.10;;;;;;;49.42;12.34;100999.97;4966511;28;97456;-78
2023/05/26 07:36:03;;;;;;;12.15;4.70;;;;;;;50.53;11.83;100990.38;4960368;28;97112;-78
2023/05/26 07:38:28;;;;;;;13.50;3.97;;;;;;;51.52;11.27;100997.56;4948222;28;101162;-78
2023/05/26 07:40:54;;;;;;;11.27;4.70;;;;;;;52.05;10.78;100994.22;4950419;28;101027;-80
2023/05/26 07:43:20;;;;;;;13.18;5.00;;;;;;;52.44;10.83;100992.75;4951615;28;96829;-79
2023/05/26 07:45:46;;;;;;;10.43;5.10;;;;;;;52.27;10.79;100989.78;4975749;28;97253;-79
2023/05/26 07:48:11;;;;;;;12.48;4.82;;;;;;;52.77;10.62;100992.47;4954946;28;98846;-79
2023/05/26 07:50:37;;;;;;;14.73;5.00;;;;;;;53.44;10.33;100999.09;4962400;28;98416;-79
2023/05/26 07:53:02;;;;;;;14.45;5.05;;;;;;;53.71;9.70;101000.88;4961230;28;97112;-79
2023/05/26 07:55:28;;;;;;;12.55;4.63;;;;;;;54.07;9.91;100980.13;4961595;28;97008;-79
2023/05/26 07:57:53;;;;;;;11.02;5.05;;;;;;;54.34;9.55;100982.59;4935268;28;101267;-80
2023/05/26 08:00:19;;;;;;;10.98;4.50;;;;;;;54.52;9.49;100980.59;4969693;28;98442;-79
2023/05/26 08:02:44;;;;;;;9.90;4.72;;;;;;;54.94;9.24;100989.25;4962516;28;97081;-80
2023/05/26 08:05:10;;;;;;;13.10;4.78;;;;;;;54.90;9.54;100982.69;4967488;28;97386;-80
2023/05/26 08:07:35;;;;;;;8.38;4.78;;;;;;;55.92;8.42;100992.09;4955824;28;97369;-80
2023/05/26 08:10:02;;;;;;;7.78;4.32;;;;;;;56.34;8.48;100980.84;4950534;28;101460;-79
2023/05/26 08:12:27;;;;;;;13.27;4.28;;;;;;;55.33;8.58;100982.50;4961257;28;97269;-79
2023/05/26 08:14:54;;;;;;;18.10;16.27;;;;;;;50.99;10.74;100989.63;4950928;28;98522;-79
2023/05/26 08:17:20;;;;;;;18.57;16.77;;;;;;;49.63;11.06;100995.00;4939760;28;98554;-79
2023/05/26 08:19:46;;;;;;;17.73;16.05;;;;;;;46.26;12.70;100998.16;4965569;28;97470;-79
2023/05/26 08:22:11;;;;;;;7.32;3.58;;;;;;;49.75;11.26;100995.41;4965128;28;97365;-78
2023/05/26 08:24:37;;;;;;;11.57;5.05;;;;;;;48.44;12.51;100996.38;4961444;28;97427;-77
2023/05/26 08:27:02;;;;;;;12.05;4.38;;;;;;;47.14;12.83;100996.31;4964230;28;97396;-77
2023/05/26 08:29:28;;;;;;;14.00;4.32;;;;;;;44.99;13.46;100992.75;4966502;28;97917;-76
2023/05/26 08:31:54;;;;;;;11.90;4.60;;;;;;;44.07;14.43;101008.41;4943966;28;97201;-77
2023/05/26 08:34:19;;;;;;;13.02;4.03;;;;;;;48.19;12.21;100989.84;4947640;28;96933;-75
2023/05/26 08:36:46;;;;;;;8.52;4.28;;;;;;;49.22;12.05;100998.22;4939187;28;101677;-77
2023/05/26 08:39:11;;;;;;;9.77;4.68;;;;;;;47.30;13.39;100981.25;4962302;28;97903;-77
2023/05/26 08:41:48;;;;;;;8.75;3.88;;;;;;;44.89;14.96;101001.00;4961111;28;97239;-76
2023/05/26 08:44:16;;;;;;;11.93;3.90;;;;;;;43.34;15.53;100996.59;4950142;28;97466;-78
2023/05/26 08:46:44;;;;;;;11.40;4.18;;;;;;;42.03;17.20;100995.63;4964102;28;98617;-78
2023/05/26 08:49:11;;;;;;;11.30;4.15;;;;;;;41.20;17.02;101004.22;4954059;28;97731;-77
2023/05/26 08:51:40;;;;;;;12.63;4.35;;;;;;;39.97;17.84;101001.72;4962382;28;96951;-78
2023/05/26 08:54:05;;;;;;;;;;;;;;;38.64;18.82;100991.91;4949872;28;97396;-77
2023/05/26 08:56:32;;;;;;;11.18;4.35;;;;;;;38.24;19.29;100978.41;4943826;28;100783;-77
2023/05/26 08:59:00;;;;;;;15.93;4.38;;;;;;;37.89;19.85;100996.25;4963519;28;97312;-77
2023/05/26 09:01:26;;;;;;;14.18;4.40;;;;;;;37.00;20.51;100989.38;4959801;28;97285;-76
2023/05/26 09:03:51;;;;;;;14.95;4.53;;;;;;;36.41;21.34;100999.13;4944128;28;97458;-76
2023/05/26 09:06:18;;;;;;;15.52;4.60;;;;;;;35.92;21.80;100995.53;4966102;28;97613;-77
2023/05/26 09:08:43;;;;;;;12.85;4.30;;;;;;;35.74;21.95;101000.72;4948532;28;101391;-76
2023/05/26 09:11:27;;;;;;;17.42;7.10;;;;;;;35.46;22.59;101003.44;4945135;28;97936;-76
2023/05/26 09:13:56;;;;;;;10.43;3.70;;;;;;;34.99;22.83;101007.63;4944831;28;97429;-75
2023/05/26 09:16:26;;;;;;;13.15;4.90;;;;;;;34.82;22.61;100996.16;4955236;28;97827;-76
2023/05/26 09:19:02;;;;;;;12.98;4.72;;;;;;;34.36;23.13;101002.78;4943031;28;97941;-75
2023/05/26 09:21:30;;;;;;;13.60;4.38;;;;;;;33.94;23.66;100976.25;4949249;28;97196;-76
2023/05/26 09:23:58;;;;;;;13.15;5.03;;;;;;;33.78;23.73;100989.03;4945836;28;97163;-76
2023/05/26 09:26:33;;;;;;;13.43;4.47;;;;;;;33.41;23.86;100973.59;4929652;28;100880;-76
2023/05/26 09:29:00;;;;;;;11.60;4.78;;;;;;;33.33;23.68;100971.78;4941332;28;101398;-76
2023/05/26 09:31:37;;;;;;;12.35;5.53;;;;;;;33.31;24.87;100984.75;4928666;28;97362;-75
2023/05/26 09:34:03;;;;;;;12.63;4.75;;;;;;;32.99;25.01;100977.75;4958805;28;97257;-75
2023/05/26 09:36:28;;;;;;;12.30;5.18;;;;;;;33.13;24.81;100998.69;4944314;28;101417;-76
2023/05/26 09:38:54;;;;;;;12.35;4.68;;;;;;;32.99;24.40;100988.63;4962486;28;98018;-75
2023/05/26 09:41:20;;;;;;;11.23;4.30;;;;;;;32.68;24.69;100999.53;4955459;28;97388;-74
2023/05/26 09:43:50;;;;;;;18.15;4.90;;;;;;;32.24;25.31;100992.78;4944181;28;97368;-76
2023/05/26 09:46:22;;;;;;;18.35;5.90;;;;;;;32.35;25.39;101002.41;4972431;28;97684;-76
2023/05/26 09:48:51;;;;;;;25.77;9.57;;;;;;;32.26;26.28;100995.34;4961871;28;97423;-76
2023/05/26 09:51:19;;;;;;;20.95;6.57;;;;;;;32.16;26.09;100978.41;4963351;28;98262;-76
2023/05/26 09:53:44;;;;;;;13.82;5.32;;;;;;;31.71;26.29;100986.19;4964031;28;97416;-76
2023/05/26 09:56:10;;;;;;;12.50;4.68;;;;;;;31.27;26.00;100994.72;4959251;28;97939;-76
2023/05/26 09:58:39;;;;;;;18.95;4.25;;;;;;;31.17;26.66;100991.34;4944428;28;100994;-76
2023/05/26 10:01:05;;;;;;;13.80;4.45;;;;;;;31.00;26.55;100992.34;4962293;28;97219;-74
2023/05/26 10:03:31;;;;;;;12.38;4.68;;;;;;;30.86;26.94;100999.28;4942373;28;97361;-74
2023/05/26 10:05:57;;;;;;;10.93;4.10;;;;;;;30.89;26.27;101004.38;4938034;28;99393;-77
2023/05/26 10:08:23;;;;;;;18.70;4.95;;;;;;;30.95;26.38;101009.16;4950822;28;100651;-75
2023/05/26 10:10:49;;;;;;;14.80;4.15;;;;;;;30.71;26.65;101009.91;4969725;28;97049;-76
2023/05/26 10:13:17;;;;;;;16.35;3.70;;;;;;;30.15;26.63;100978.94;4951093;28;97364;-76
2023/05/26 10:15:44;;;;;;;17.45;4.85;;;;;;;30.26;26.76;101007.63;4969135;28;97670;-77
2023/05/26 10:18:09;;;;;;;18.73;5.25;;;;;;;30.11;27.28;100985.72;4930822;28;101462;-77
2023/05/26 10:20:36;;;;;;;12.52;4.78;;;;;;;30.44;27.00;101001.06;4944387;28;97354;-75
2023/05/26 10:23:05;;;;;;;12.90;4.05;;;;;;;30.16;27.41;101010.41;4948862;28;97256;-77
2023/05/26 10:25:55;;;;;;;12.60;4.10;;;;;;;29.89;27.62;101004.19;4952480;28;100381;-75
2023/05/26 10:28:34;;;;;;;9.20;3.55;;;;;;;29.88;28.10;101002.53;4963926;28;97406;-75
2023/05/26 10:31:00;;;;;;;11.77;3.67;;;;;;;29.75;27.84;100999.38;4963630;28;96865;-74
2023/05/26 10:33:43;;;;;;;14.32;4.55;;;;;;;29.26;28.24;100994.47;4967510;28;97090;-74
2023/05/26 10:36:19;;;;;;;12.27;4.10;;;;;;;29.25;27.93;100995.50;4941754;28;98104;-77
2023/05/26 10:38:47;;;;;;;9.95;3.75;;;;;;;29.13;27.76;100983.25;4959130;28;97396;-75
2023/05/26 10:41:29;;;;;;;14.02;3.53;;;;;;;28.93;27.76;100995.19;4952179;28;96802;-76
2023/05/26 10:43:55;;;;;;;11.80;3.35;;;;;;;28.61;27.93;100993.88;4968142;28;97916;-77
2023/05/26 10:46:20;;;;;;;8.85;3.15;;;;;;;28.20;27.67;100988.84;4959613;28;98496;-76
2023/05/26 10:48:57;;;;;;;10.45;3.42;;;;;;;28.20;27.21;100999.66;4952662;28;97528;-75
2023/05/26 10:51:33;;;;;;;10.45;3.83;;;;;;;26.42;27.35;100993.91;4952073;28;97249;-74
2023/05/26 10:54:18;;;;;;;11.43;3.75;;;;;;;27.04;27.31;100999.94;4948921;28;97939;-77
2023/05/26 10:56:43;;;;;;;9.90;4.13;;;;;;;26.35;27.60;101007.03;4949661;28;99792;-74
2023/05/26 10:59:20;;;;;;;12.98;3.70;;;;;;;26.56;27.12;101006.16;4951031;28;101790;-74
2023/05/26 11:01:50;;;;;;;14.18;3.30;;;;;;;26.69;27.03;100997.78;4965299;28;98238;-74
2023/05/26 11:04:15;;;;;;;12.43;3.80;;;;;;;26.45;28.04;101007.09;4961182;28;97111;-74
2023/05/26 11:06:45;;;;;;;11.38;3.55;;;;;;;26.40;27.71;101012.88;4964873;28;98391;-74
2023/05/26 11:09:11;;;;;;;7.65;3.25;;;;;;;26.58;27.31;101005.00;4935170;28;101335;-74
2023/05/26 11:11:38;;;;;;;15.80;3.58;;;;;;;26.76;27.25;101009.69;4968485;28;97373;-75
2023/05/26 11:14:12;;;;;;;13.48;3.47;;;;;;;26.43;27.97;101009.91;4933183;28;96887;-75
2023/05/26 11:16:42;;;;;;;12.95;3.75;;;;;;;26.99;27.32;101004.88;4971981;28;98096;-77
2023/05/26 11:19:10;;;;;;;15.83;3.43;;;;;;;27.30;27.03;101001.06;4953428;28;101816;-76
2023/05/26 11:21:37;;;;;;;13.25;3.67;;;;;;;24.91;28.15;100976.53;4955073;28;97428;-77